Oxford

Airport
ICAO code: 
EGTK
Summary
ICAO Region: 
EUR
Territory: 
Location: 
Oxford,
Elevation: 
270 ft
Coordinates: 
Aerial View: 
51° 50' 12.836" N, 1° 19' 12" W
Metar
Observation
EGTK 160920Z 26003KT 1300 R19/P2000 BR VCFG FEW001 BKN045 04/04 Q1024
Station
Kidlington
Date/Time
2022-01-16 09:20:00
Wind direction
260°
Wind speed
03 kts
Lowest cloud amount
few clouds
Temperature
4°C
Dew point
4°C
Humidity
100%
QNH
1024 hPa
Weather condition
n/a

Description

London Oxford Airport, also known as Oxford Airport or Kidlington Airport, is a privately owned airport located near Kidlington in Cherwell District, Oxfordshire, 6 nm northwest by north of Oxford. It specialises in general and business aviation and is home to Oxford Aviation Academy, formerly Oxford Aviation Training, the largest air training school in Europe.

Climatology

Temperate Marine climate/Oceanic climate (Köppen climate classification Cfb). Moderately cool summer and comparatively warm winter with a temperature range of only 14°C. Prevailing south-westerly winds from the Atlantic Ocean.

Runways

Designator Length Width Surface Rops
11/29 760 28 ASP No/No
3/21 880 47 GRS No/No
9/27 880 45 GRS No/No
1/19 1319 23 ASP No/No
Airport map: 
Aerial View: 

SKYbrary Partners:

Safety knowledge contributed by: